Indian Grove, Missouri
Current Conditions -  °F | °C
As of 11:55 PM on Friday 28 Nov 2014 (Local Time) from KMHL Reporting Station
Clear Clear  
Wind Chill: 12°   Ceiling: Unl
Heat Index: 12°   Visibility: 10mi
Dew Point:   Wind: 15mph
Humidity: 62%   Direction: 210°SSW
Pressure: 29.76"   Gusts: 21mph
Location:  39.4474°N, 93.0872°W
Report Text: KMHL 290555Z AUTO 21013G18KT 10SM CLR 12/05 A2976 RMK AO2
Loading
Personal Weather Stations






























Interactive Weather Map New forecast layout! Learn more

10-Day Weather Forecast

Advertisements
Track Severe Weather on mobile